Terminal Aerodrome Forecast
Issued by NWS

Home | Current Version | Previous Version | Text Only | Print | Product List | Glossary On
Versions: 1 2 3 4 5 6 7 8 9 10 11 12 13
000
FTUS45 KABQ 031734
TAFFMN
TAF
KFMN 031734Z 0318/0418 14007KT P6SM SCT080 SCT150
     FM032000 25010KT P6SM BKN080 BKN150
     FM040500 10007KT P6SM BKN120
     FM041400 12006KT P6SM VCSH BKN100
     FM041700 16006KT P6SM VCTS SCT070CB BKN100=

USA.gov is the U.S. government's official web portal to all federal, state and local government web resources and services.